Time;durP1;ratioP1;P1;durP2;ratioP2;P2;SDS_P1;SDS_P2;PMS_P1;PMS_P2;Temp;Humidity;BMP_temperature;BMP_pressure;BME280_temperature;BME280_humidity;BME280_pressure;Samples;Min_cycle;Max_cycle;Signal;HPM_P1;HPM_P2
2022/01/25 00:32:33;;;;;;;0.40;0.20;;;-0.90;99.90;;;;;;4973736;28;20415;-74
2022/01/25 00:34:59;;;;;;;0.40;0.20;;;-0.90;99.90;;;;;;4972977;28;20806;-74
2022/01/25 00:37:24;;;;;;;0.40;0.20;;;-0.90;99.90;;;;;;4974323;28;20439;-74
2022/01/25 00:39:51;;;;;;;0.70;0.70;;;-0.90;99.90;;;;;;4973963;28;20402;-74
2022/01/25 00:42:17;;;;;;;0.40;0.40;;;-0.90;99.90;;;;;;4972925;28;20384;-74
2022/01/25 00:44:47;;;;;;;0.40;0.20;;;-0.90;99.90;;;;;;4973492;28;20389;-74
2022/01/25 00:47:15;;;;;;;0.40;0.20;;;-1.10;99.90;;;;;;4973201;28;20442;-74
2022/01/25 00:49:41;;;;;;;0.40;0.30;;;-1.10;99.90;;;;;;4973667;28;20440;-74
2022/01/25 00:52:21;;;;;;;0.40;0.30;;;-1.20;99.90;;;;;;4973116;28;20395;-74
2022/01/25 00:54:48;;;;;;;0.60;0.50;;;-1.10;99.90;;;;;;4973771;28;20475;-74
2022/01/25 00:57:15;;;;;;;0.70;0.70;;;-1.20;99.90;;;;;;4972500;28;20485;-74
2022/01/25 00:59:40;;;;;;;0.40;0.20;;;-1.20;99.90;;;;;;4989388;28;20387;-74
2022/01/25 01:02:09;;;;;;;0.40;0.20;;;-1.10;99.90;;;;;;4991539;28;20771;-74
2022/01/25 01:04:35;;;;;;;0.40;0.20;;;-1.10;99.90;;;;;;4996268;28;20382;-74
2022/01/25 01:07:03;;;;;;;0.40;0.40;;;-1.20;99.90;;;;;;4990141;28;20906;-74
2022/01/25 01:09:34;;;;;;;0.40;0.20;;;-1.30;99.90;;;;;;4991466;28;20742;-74
2022/01/25 01:12:06;;;;;;;0.43;0.32;;;-1.30;99.90;;;;;;4992139;28;20398;-75
2022/01/25 01:14:54;;;;;;;0.45;0.35;;;-1.30;99.90;;;;;;5007068;28;20977;-74
2022/01/25 01:31:22;;;;;;;0.70;0.70;;;-1.40;99.90;;;;;;5010910;28;20471;-74
2022/01/25 01:44:00;;;;;;;1.00;0.90;;;-1.40;99.90;;;;;;5011403;28;20416;-74
2022/01/25 01:46:57;;;;;;;0.50;0.50;;;-1.40;99.90;;;;;;5011283;28;20388;-74
2022/01/25 01:49:25;;;;;;;1.35;1.25;;;-1.40;99.90;;;;;;5010797;28;20420;-74
2022/01/25 01:51:50;;;;;;;0.40;0.20;;;-1.30;99.90;;;;;;5011501;28;20385;-74
2022/01/25 01:54:17;;;;;;;1.57;1.00;;;-1.40;99.90;;;;;;5010069;28;20392;-74
2022/01/25 01:56:43;;;;;;;0.40;0.20;;;-1.30;99.90;;;;;;5011599;28;20745;-74
2022/01/25 01:59:13;;;;;;;0.40;0.40;;;-1.40;99.90;;;;;;4998435;28;20390;-74
2022/01/25 02:01:40;;;;;;;0.40;0.30;;;-1.50;99.90;;;;;;4991975;28;20386;-74
2022/01/25 02:04:10;;;;;;;0.40;0.30;;;-1.40;99.90;;;;;;4991024;28;20497;-74
2022/01/25 02:06:36;;;;;;;0.40;0.20;;;-1.40;99.90;;;;;;4991753;28;20894;-74
2022/01/25 02:09:03;;;;;;;0.40;0.20;;;-1.30;99.90;;;;;;4991300;28;20474;-75
2022/01/25 02:11:29;;;;;;;0.40;0.20;;;-1.40;99.90;;;;;;4991660;28;20387;-74
2022/01/25 02:13:55;;;;;;;0.40;0.20;;;-1.40;99.90;;;;;;4991655;28;20681;-74
2022/01/25 02:24:24;;;;;;;0.40;0.20;;;-1.50;99.90;;;;;;4990256;28;20557;-74
2022/01/25 02:26:55;;;;;;;0.40;0.20;;;-1.40;99.90;;;;;;4991147;28;20895;-74
2022/01/25 02:29:20;;;;;;;0.40;0.20;;;-1.50;99.90;;;;;;5002612;28;20417;-74
2022/01/25 02:31:46;;;;;;;0.80;0.80;;;-1.40;99.90;;;;;;5009779;28;20416;-74
2022/01/25 02:34:13;;;;;;;1.90;0.80;;;-1.30;99.90;;;;;;5010374;28;20396;-74
2022/01/25 02:36:39;;;;;;;0.40;0.20;;;-1.40;99.90;;;;;;5011034;28;20931;-74
2022/01/25 02:39:05;;;;;;;0.40;0.20;;;-1.40;99.90;;;;;;5010289;28;20397;-75
2022/01/25 02:41:30;;;;;;;0.40;0.20;;;-1.40;99.90;;;;;;5010692;28;20790;-74
2022/01/25 02:43:58;;;;;;;0.40;0.20;;;-1.50;99.90;;;;;;5009755;28;20440;-74
2022/01/25 02:49:00;;;;;;;0.40;0.20;;;-1.60;99.90;;;;;;5010686;28;20467;-74
2022/01/25 02:51:37;;;;;;;0.40;0.20;;;-1.60;99.90;;;;;;5009852;28;20455;-74
2022/01/25 02:54:04;;;;;;;0.40;0.38;;;-1.60;99.90;;;;;;5010686;28;20416;-74
2022/01/25 02:56:30;;;;;;;0.40;0.30;;;-1.60;99.90;;;;;;5010629;28;20385;-74
2022/01/25 02:58:56;;;;;;;0.40;0.30;;;-1.60;99.90;;;;;;5000305;28;20394;-73
2022/01/25 03:01:23;;;;;;;0.40;0.30;;;-1.60;99.90;;;;;;4990419;28;20383;-73
2022/01/25 03:03:49;;;;;;;1.20;1.00;;;-1.50;99.90;;;;;;4991790;28;20421;-73
2022/01/25 03:06:20;;;;;;;0.40;0.20;;;-1.40;99.90;;;;;;4972406;28;20415;-74
2022/01/25 03:08:47;;;;;;;0.40;0.20;;;-1.60;99.90;;;;;;4984997;28;20445;-74
2022/01/25 03:11:14;;;;;;;0.40;0.40;;;-1.60;99.90;;;;;;4990415;28;20405;-74
2022/01/25 03:13:54;;;;;;;0.50;0.50;;;-1.70;99.90;;;;;;4990704;28;20890;-74
2022/01/25 03:16:29;;;;;;;0.40;0.20;;;-1.70;99.90;;;;;;4990175;28;20922;-74
2022/01/25 03:18:57;;;;;;;1.20;1.10;;;-1.70;99.90;;;;;;4991051;28;20382;-74
2022/01/25 03:21:37;;;;;;;0.40;0.30;;;-1.70;99.90;;;;;;5004775;28;20461;-73
2022/01/25 03:24:05;;;;;;;0.40;0.20;;;-1.70;99.90;;;;;;4990852;28;20446;-73
2022/01/25 03:26:31;;;;;;;0.40;0.20;;;-1.70;99.90;;;;;;4990919;28;20452;-73
2022/01/25 03:28:57;;;;;;;0.60;0.60;;;-1.70;99.90;;;;;;4990518;28;20882;-73
2022/01/25 03:31:23;;;;;;;0.40;0.20;;;-1.60;99.90;;;;;;4999383;28;20377;-73
2022/01/25 03:33:49;;;;;;;0.40;0.20;;;-1.60;99.90;;;;;;5010536;28;20391;-73
2022/01/25 03:36:18;;;;;;;0.40;0.20;;;-1.60;99.90;;;;;;5009941;28;20397;-73
2022/01/25 03:38:44;;;;;;;0.40;0.20;;;-1.50;99.90;;;;;;5010139;28;20876;-73
2022/01/25 03:41:12;;;;;;;0.40;0.30;;;-1.60;99.90;;;;;;5009709;28;20742;-73
2022/01/25 03:43:38;;;;;;;0.40;0.20;;;-1.60;99.90;;;;;;5010216;28;20412;-73
2022/01/25 03:46:15;;;;;;;0.40;0.20;;;-1.60;99.90;;;;;;5010357;28;20389;-73
2022/01/25 03:51:07;;;;;;;0.40;0.20;;;-1.60;99.90;;;;;;5009741;28;20486;-74
2022/01/25 03:53:33;;;;;;;0.40;0.20;;;-1.60;99.90;;;;;;5009363;28;20463;-73
2022/01/25 03:55:58;;;;;;;0.40;0.20;;;-1.60;99.90;;;;;;5013111;28;20385;-73
2022/01/25 03:58:26;;;;;;;0.40;0.20;;;-1.60;99.90;;;;;;5006865;28;20398;-73
2022/01/25 04:00:51;;;;;;;0.40;0.20;;;-1.60;99.90;;;;;;4994074;28;20393;-73
2022/01/25 04:03:33;;;;;;;0.40;0.20;;;-1.50;99.90;;;;;;4993119;28;20622;-74
2022/01/25 04:05:59;;;;;;;0.40;0.20;;;-1.60;99.90;;;;;;4993568;28;20469;-73
2022/01/25 04:08:25;;;;;;;0.40;0.20;;;-1.60;99.90;;;;;;4993107;28;20390;-73
2022/01/25 04:10:50;;;;;;;0.50;0.50;;;-1.50;99.90;;;;;;4992244;28;20387;-73
2022/01/25 04:13:16;;;;;;;0.40;0.20;;;-1.50;99.90;;;;;;4992817;28;20402;-73
2022/01/25 04:15:45;;;;;;;0.40;0.40;;;-1.50;99.90;;;;;;4993214;28;20440;-73
2022/01/25 04:20:54;;;;;;;0.40;0.20;;;-1.70;99.90;;;;;;4993612;28;20783;-73
2022/01/25 04:26:04;;;;;;;0.40;0.30;;;-1.70;99.90;;;;;;4993407;28;20417;-73
2022/01/25 04:28:30;;;;;;;0.50;0.50;;;-1.60;99.90;;;;;;4992375;28;20414;-73
2022/01/25 04:30:56;;;;;;;0.80;0.70;;;-1.70;99.90;;;;;;4993558;28;20386;-73
2022/01/25 04:33:28;;;;;;;0.40;0.20;;;-1.60;99.90;;;;;;4993105;28;20739;-73
2022/01/25 04:36:10;;;;;;;0.40;0.20;;;-1.60;99.90;;;;;;4993762;28;20438;-73
2022/01/25 04:49:36;;;;;;;2.40;0.90;;;-1.90;99.90;;;;;;4991748;28;20382;-73
2022/01/25 04:59:35;;;;;;;0.50;0.50;;;-1.80;99.90;;;;;;4978167;28;20436;-73
2022/01/25 05:02:08;;;;;;;0.40;0.20;;;-1.90;99.90;;;;;;4972747;28;20904;-73
2022/01/25 05:04:40;;;;;;;0.40;0.20;;;-2.00;99.90;;;;;;4992251;28;20685;-73
2022/01/25 05:07:21;;;;;;;0.40;0.20;;;-2.00;99.90;;;;;;4989859;28;20553;-73
2022/01/25 05:09:48;;;;;;;0.40;0.25;;;-1.90;99.90;;;;;;4993038;28;20811;-73
2022/01/25 05:12:14;;;;;;;0.40;0.30;;;-2.00;99.90;;;;;;4985461;28;20690;-74
2022/01/25 05:14:59;;;;;;;0.40;0.30;;;-1.90;99.90;;;;;;4982743;28;20384;-73
2022/01/25 05:17:58;;;;;;;0.40;0.20;;;-1.80;99.90;;;;;;5011907;28;20480;-73
2022/01/25 05:22:54;;;;;;;0.40;0.30;;;-1.90;99.90;;;;;;5012508;28;20424;-73
2022/01/25 05:25:20;;;;;;;0.40;0.20;;;-1.90;99.90;;;;;;5011170;28;20385;-73
2022/01/25 05:27:46;;;;;;;0.40;0.20;;;-1.90;99.90;;;;;;5011694;28;20439;-73
2022/01/25 05:30:12;;;;;;;0.60;0.60;;;-1.80;99.90;;;;;;5012238;28;20439;-74
2022/01/25 05:32:38;;;;;;;0.50;0.50;;;-1.80;99.90;;;;;;5026984;28;20396;-73
2022/01/25 05:35:04;;;;;;;0.40;0.20;;;-1.80;99.90;;;;;;5012185;28;20834;-73
2022/01/25 05:37:32;;;;;;;0.40;0.20;;;-1.80;99.90;;;;;;5010069;28;20404;-73
2022/01/25 05:40:00;;;;;;;0.40;0.30;;;-1.80;99.90;;;;;;5010898;28;20416;-73
2022/01/25 05:47:43;;;;;;;0.80;0.50;;;-1.80;99.90;;;;;;5011807;28;20389;-73
2022/01/25 05:50:12;;;;;;;0.40;0.20;;;-1.80;99.90;;;;;;5011610;28;20865;-73
2022/01/25 05:52:38;;;;;;;0.47;0.45;;;-1.80;99.90;;;;;;5009997;28;20401;-73
2022/01/25 05:55:04;;;;;;;0.40;0.20;;;-1.90;99.90;;;;;;5011617;28;20389;-73
2022/01/25 05:57:30;;;;;;;0.40;0.20;;;-2.00;99.90;;;;;;5011081;28;20397;-73
2022/01/25 05:59:55;;;;;;;0.40;0.40;;;-2.10;99.90;;;;;;4993463;28;20445;-73
2022/01/25 06:02:23;;;;;;;0.40;0.20;;;-2.10;99.90;;;;;;4991734;28;20438;-73
2022/01/25 06:04:50;;;;;;;0.80;0.80;;;-2.10;99.90;;;;;;4991952;28;20878;-73
2022/01/25 06:07:16;;;;;;;0.40;0.20;;;-2.10;99.90;;;;;;4991762;28;20505;-75
2022/01/25 06:09:41;;;;;;;0.40;0.30;;;-2.20;99.90;;;;;;4991780;28;20473;-75
2022/01/25 06:12:09;;;;;;;0.40;0.20;;;-2.20;99.90;;;;;;4990620;28;20871;-74
2022/01/25 06:14:34;;;;;;;0.60;0.50;;;-2.20;99.90;;;;;;4991449;28;20390;-75
2022/01/25 06:17:00;;;;;;;0.40;0.40;;;-2.10;99.90;;;;;;5010984;28;20495;-74
2022/01/25 06:19:26;;;;;;;0.40;0.20;;;-2.20;99.90;;;;;;5010649;28;20435;-74
2022/01/25 06:21:51;;;;;;;0.40;0.20;;;-2.10;99.90;;;;;;5011171;28;20393;-74
2022/01/25 06:24:17;;;;;;;0.40;0.30;;;-2.10;99.90;;;;;;5010505;28;20467;-75
2022/01/25 06:26:43;;;;;;;0.40;0.20;;;-2.00;99.90;;;;;;5011318;28;20385;-74
2022/01/25 06:29:08;;;;;;;0.40;0.20;;;-2.10;99.90;;;;;;5010400;28;20393;-74
2022/01/25 06:31:34;;;;;;;0.40;0.30;;;-2.10;99.90;;;;;;5010472;28;20378;-74
2022/01/25 06:34:00;;;;;;;0.40;0.20;;;-2.10;99.90;;;;;;5011105;28;20384;-74
2022/01/25 06:36:26;;;;;;;0.40;0.20;;;-2.00;99.90;;;;;;5008929;28;20848;-74
2022/01/25 06:38:52;;;;;;;0.40;0.20;;;-1.90;99.90;;;;;;5026153;28;20393;-73
2022/01/25 06:41:18;;;;;;;0.40;0.20;;;-1.90;99.90;;;;;;5010693;28;20718;-75
2022/01/25 06:43:44;;;;;;;0.40;0.20;;;-2.00;99.90;;;;;;5010806;28;20520;-73
2022/01/25 06:46:10;;;;;;;0.40;0.20;;;-2.00;99.90;;;;;;5010972;28;20392;-73
2022/01/25 06:48:36;;;;;;;0.40;0.20;;;-2.10;99.90;;;;;;5010286;28;21200;-73
2022/01/25 06:51:01;;;;;;;0.40;0.20;;;-2.10;99.90;;;;;;5011184;28;20389;-73
2022/01/25 06:53:27;;;;;;;0.40;0.20;;;-2.00;99.90;;;;;;5010254;28;20403;-74
2022/01/25 06:55:53;;;;;;;0.40;0.20;;;-2.00;99.90;;;;;;5002993;28;20397;-74
2022/01/25 06:58:19;;;;;;;0.40;0.22;;;-2.00;99.90;;;;;;4978793;28;20409;-74
2022/01/25 07:00:45;;;;;;;0.40;0.30;;;-2.10;99.90;;;;;;4990821;28;20441;-73
2022/01/25 07:03:11;;;;;;;0.40;0.40;;;-2.00;99.90;;;;;;4990301;28;20933;-74
2022/01/25 07:05:37;;;;;;;0.40;0.20;;;-2.00;99.90;;;;;;4980093;28;20902;-73
2022/01/25 07:08:03;;;;;;;0.40;0.20;;;-2.00;99.90;;;;;;4986928;28;20856;-73
2022/01/25 07:10:28;;;;;;;0.40;0.20;;;-2.00;99.90;;;;;;4969655;28;20412;-74
2022/01/25 07:12:54;;;;;;;0.60;0.60;;;-1.90;99.90;;;;;;4981075;28;20390;-73
2022/01/25 07:15:20;;;;;;;0.80;0.80;;;-1.90;99.90;;;;;;4985438;28;20403;-75
2022/01/25 07:17:46;;;;;;;0.40;0.20;;;-1.80;99.90;;;;;;4990299;28;20386;-73
2022/01/25 07:20:12;;;;;;;1.30;1.30;;;-1.80;99.90;;;;;;4991259;28;20854;-73
2022/01/25 07:22:40;;;;;;;0.40;0.30;;;-1.70;99.90;;;;;;4989930;28;20422;-73
2022/01/25 07:25:09;;;;;;;0.40;0.20;;;-1.70;99.90;;;;;;4985991;28;20383;-73
2022/01/25 07:27:35;;;;;;;0.40;0.20;;;-1.70;99.90;;;;;;4990313;28;20476;-73
2022/01/25 07:30:00;;;;;;;2.10;0.60;;;-1.70;99.90;;;;;;4989670;28;20444;-73
2022/01/25 07:32:26;;;;;;;0.40;0.20;;;-1.50;99.90;;;;;;4977154;28;20399;-73
2022/01/25 07:34:52;;;;;;;0.40;0.20;;;-1.50;99.90;;;;;;4976266;28;20454;-73
2022/01/25 07:37:17;;;;;;;0.40;0.20;;;-1.60;99.90;;;;;;4984329;28;20474;-73
2022/01/25 07:39:44;;;;;;;0.40;0.20;;;-1.60;99.90;;;;;;4982878;28;20430;-74
2022/01/25 07:42:11;;;;;;;0.40;0.20;;;-1.40;99.90;;;;;;4981997;28;20479;-73
2022/01/25 07:44:38;;;;;;;1.00;0.90;;;-1.50;99.90;;;;;;4985215;28;20795;-73
2022/01/25 07:47:05;;;;;;;0.40;0.30;;;-1.50;99.90;;;;;;4987980;28;20475;-73
2022/01/25 07:49:31;;;;;;;0.40;0.30;;;-1.50;99.90;;;;;;4987751;28;20478;-74
2022/01/25 07:51:58;;;;;;;0.50;0.47;;;-1.60;99.90;;;;;;4985993;28;20788;-74
2022/01/25 07:54:24;;;;;;;0.40;0.20;;;-1.50;99.90;;;;;;4983147;28;20388;-75
2022/01/25 07:56:50;;;;;;;0.40;0.20;;;-1.30;99.90;;;;;;4982934;28;20890;-75
2022/01/25 07:59:15;;;;;;;0.40;0.20;;;-1.20;99.90;;;;;;4978761;28;20477;-74
2022/01/25 08:01:42;;;;;;;0.40;0.20;;;-1.30;99.90;;;;;;4982091;28;20465;-75
2022/01/25 08:04:09;;;;;;;0.43;0.40;;;-1.30;99.90;;;;;;4982047;28;20736;-74
2022/01/25 08:06:36;;;;;;;0.40;0.30;;;-1.30;99.90;;;;;;4983782;28;20435;-74
2022/01/25 08:09:03;;;;;;;0.40;0.20;;;-1.30;99.90;;;;;;4985824;28;20426;-74
2022/01/25 08:11:28;;;;;;;2.70;0.80;;;-1.10;99.90;;;;;;4985131;28;20390;-73
2022/01/25 08:14:01;;;;;;;0.40;0.20;;;-1.20;99.90;;;;;;4991137;28;20718;-74
2022/01/25 08:16:27;;;;;;;0.50;0.50;;;-1.10;99.90;;;;;;4985239;28;20396;-75
2022/01/25 08:18:52;;;;;;;0.50;0.50;;;-1.10;99.90;;;;;;4993169;28;20391;-74
2022/01/25 08:21:18;;;;;;;0.40;0.20;;;-1.20;99.90;;;;;;4993565;28;20409;-74
2022/01/25 08:23:44;;;;;;;0.40;0.20;;;-1.10;99.90;;;;;;4993062;28;20467;-74
2022/01/25 08:26:10;;;;;;;0.40;0.30;;;-1.10;99.90;;;;;;4993742;28;20391;-74
2022/01/25 08:28:36;;;;;;;0.55;0.55;;;-0.90;99.90;;;;;;4991782;28;20533;-74
2022/01/25 08:31:01;;;;;;;0.40;0.30;;;-0.90;99.90;;;;;;4992634;28;20395;-74
2022/01/25 08:33:27;;;;;;;0.52;0.52;;;-0.80;99.90;;;;;;4993120;28;20731;-75
2022/01/25 08:35:53;;;;;;;0.40;0.30;;;-0.70;99.90;;;;;;4993704;28;20411;-74
2022/01/25 08:38:19;;;;;;;0.40;0.20;;;-0.70;99.90;;;;;;4993361;28;20409;-74
2022/01/25 08:40:45;;;;;;;0.40;0.30;;;-0.60;99.90;;;;;;4990834;28;20398;-74
2022/01/25 08:43:11;;;;;;;2.40;0.80;;;-0.60;99.90;;;;;;4992806;28;20500;-74
2022/01/25 08:45:36;;;;;;;0.40;0.20;;;-0.50;99.90;;;;;;4992634;28;20770;-74
2022/01/25 08:48:02;;;;;;;0.40;0.20;;;-0.50;99.90;;;;;;4993668;28;20449;-74
2022/01/25 08:50:28;;;;;;;0.40;0.20;;;-0.50;99.90;;;;;;4992589;28;20474;-75
2022/01/25 08:52:54;;;;;;;0.40;0.20;;;-0.40;99.90;;;;;;4993416;28;20742;-74
2022/01/25 08:55:19;;;;;;;0.40;0.20;;;-0.30;99.90;;;;;;4993415;28;20847;-74
2022/01/25 08:57:45;;;;;;;0.40;0.20;;;0.00;99.90;;;;;;4992457;28;20382;-74
2022/01/25 09:00:12;;;;;;;0.40;0.20;;;-0.10;99.90;;;;;;4992817;28;20410;-74
2022/01/25 09:02:40;;;;;;;0.40;0.20;;;0.00;99.90;;;;;;4991647;28;20399;-74
2022/01/25 09:05:06;;;;;;;0.40;0.30;;;0.00;99.90;;;;;;4992742;28;20455;-74
2022/01/25 09:07:32;;;;;;;0.40;0.20;;;0.20;99.90;;;;;;4992843;28;20464;-75
2022/01/25 09:09:58;;;;;;;0.40;0.20;;;0.30;99.90;;;;;;4993378;28;20381;-74
2022/01/25 09:12:23;;;;;;;1.13;1.03;;;0.40;99.90;;;;;;4993008;28;20383;-75
2022/01/25 09:14:49;;;;;;;0.40;0.30;;;0.50;99.90;;;;;;4992322;28;20874;-74
2022/01/25 09:17:15;;;;;;;0.40;0.20;;;0.40;99.90;;;;;;4992955;28;20398;-74
2022/01/25 09:19:41;;;;;;;0.40;0.30;;;0.40;99.90;;;;;;4990994;28;20485;-74
2022/01/25 09:22:08;;;;;;;0.40;0.20;;;0.50;99.90;;;;;;4992545;28;20393;-74
2022/01/25 09:24:34;;;;;;;0.40;0.20;;;0.70;99.90;;;;;;4992017;28;20414;-75
2022/01/25 09:27:02;;;;;;;0.43;0.25;;;0.80;99.90;;;;;;4993160;28;20393;-75
2022/01/25 09:29:28;;;;;;;1.70;1.00;;;0.90;99.90;;;;;;4992352;28;20399;-75
2022/01/25 09:31:54;;;;;;;0.90;0.75;;;0.90;99.90;;;;;;4992555;28;20390;-75
2022/01/25 09:34:23;;;;;;;0.40;0.20;;;1.10;99.90;;;;;;4992682;28;20395;-75
2022/01/25 09:36:50;;;;;;;0.40;0.20;;;1.10;99.90;;;;;;4991852;28;20538;-75
2022/01/25 09:39:15;;;;;;;0.40;0.30;;;1.30;99.90;;;;;;4992476;28;20932;-75
2022/01/25 09:41:41;;;;;;;0.40;0.40;;;1.30;99.90;;;;;;4991487;28;20391;-75
2022/01/25 09:44:07;;;;;;;0.40;0.22;;;1.20;99.90;;;;;;4991875;28;20414;-75
2022/01/25 09:46:33;;;;;;;0.40;0.20;;;1.30;99.90;;;;;;4990302;28;20819;-75
2022/01/25 09:48:59;;;;;;;0.40;0.30;;;1.40;99.90;;;;;;4990949;28;20422;-75
2022/01/25 09:51:25;;;;;;;0.70;0.70;;;1.40;99.90;;;;;;4992161;28;20796;-75
2022/01/25 09:53:51;;;;;;;0.40;0.20;;;1.60;99.90;;;;;;4991257;28;20414;-76
2022/01/25 09:56:17;;;;;;;1.00;0.80;;;1.70;99.90;;;;;;4992241;28;20409;-75
2022/01/25 09:58:44;;;;;;;0.70;0.70;;;1.60;99.90;;;;;;4986622;28;20479;-76
2022/01/25 10:01:11;;;;;;;0.40;0.20;;;1.70;99.90;;;;;;4972452;28;20896;-76
2022/01/25 10:03:39;;;;;;;0.40;0.30;;;1.90;99.90;;;;;;4971504;28;20412;-76
2022/01/25 10:06:16;;;;;;;0.40;0.30;;;1.90;99.90;;;;;;4972263;28;20455;-76
2022/01/25 10:08:43;;;;;;;0.40;0.30;;;1.90;99.90;;;;;;4971971;28;20454;-76
2022/01/25 10:11:14;;;;;;;0.40;0.20;;;2.00;99.90;;;;;;4972663;28;20512;-76
2022/01/25 10:13:50;;;;;;;0.40;0.20;;;2.00;99.90;;;;;;4971717;28;20491;-76
2022/01/25 10:16:19;;;;;;;0.63;0.57;;;2.10;99.90;;;;;;4972540;28;20454;-76
2022/01/25 10:18:53;;;;;;;0.40;0.40;;;2.00;99.90;;;;;;4971611;28;20387;-76
2022/01/25 10:21:31;;;;;;;0.80;0.80;;;2.20;99.90;;;;;;4972157;28;20884;-75
2022/01/25 10:24:15;;;;;;;0.40;0.20;;;2.50;99.90;;;;;;4972082;28;20467;-75
2022/01/25 10:26:53;;;;;;;0.40;0.30;;;2.60;99.90;;;;;;4971633;28;20392;-75
2022/01/25 10:29:32;;;;;;;0.40;0.20;;;2.80;99.90;;;;;;4972320;28;20463;-75
2022/01/25 10:32:06;;;;;;;0.60;0.60;;;2.80;99.90;;;;;;4972484;28;20403;-75
2022/01/25 10:34:38;;;;;;;0.40;0.32;;;3.00;99.90;;;;;;4970644;28;20404;-76
2022/01/25 10:37:09;;;;;;;1.30;0.80;;;3.20;99.90;;;;;;4970787;28;20400;-75
2022/01/25 10:39:39;;;;;;;3.53;2.63;;;3.30;99.90;;;;;;4971451;28;20396;-76
2022/01/25 10:42:29;;;;;;;0.40;0.20;;;3.50;99.90;;;;;;4972509;28;20430;-76
2022/01/25 10:44:58;;;;;;;1.20;0.70;;;3.50;99.90;;;;;;4971080;28;20427;-75
2022/01/25 10:47:38;;;;;;;0.70;0.60;;;3.60;99.90;;;;;;4971097;28;20411;-75
2022/01/25 10:50:21;;;;;;;0.40;0.20;;;3.70;99.90;;;;;;4972103;28;20392;-75
2022/01/25 10:53:01;;;;;;;1.00;0.80;;;3.70;99.90;;;;;;4971502;28;20471;-75
2022/01/25 10:55:36;;;;;;;0.40;0.30;;;3.90;99.90;;;;;;4972015;28;20424;-74
2022/01/25 10:58:03;;;;;;;0.40;0.20;;;4.00;99.90;;;;;;4971861;28;20396;-75
2022/01/25 11:00:34;;;;;;;0.40;0.20;;;4.10;99.90;;;;;;4972263;28;20737;-75
2022/01/25 11:03:01;;;;;;;2.40;0.90;;;4.10;99.90;;;;;;4972131;28;20422;-74
2022/01/25 11:05:32;;;;;;;0.40;0.20;;;4.10;99.90;;;;;;4973817;28;20419;-75
2022/01/25 11:08:13;;;;;;;0.40;0.20;;;4.30;99.90;;;;;;4975444;28;20399;-74
2022/01/25 11:10:48;;;;;;;0.50;0.50;;;4.40;99.90;;;;;;4975500;28;20391;-76
2022/01/25 11:15:59;;;;;;;1.08;0.93;;;4.70;99.90;;;;;;4975401;28;20391;-75
2022/01/25 11:18:25;;;;;;;0.90;0.70;;;4.80;99.90;;;;;;4975704;28;20443;-75
2022/01/25 11:20:52;;;;;;;1.90;1.40;;;4.90;99.90;;;;;;4975399;28;20447;-75
2022/01/25 11:23:18;;;;;;;0.40;0.30;;;5.10;99.90;;;;;;4975947;28;20420;-76
2022/01/25 11:25:45;;;;;;;1.10;1.00;;;5.00;99.90;;;;;;4974846;28;20455;-75
2022/01/25 11:28:12;;;;;;;2.80;0.90;;;5.30;99.90;;;;;;4976342;28;20430;-75
2022/01/25 11:30:40;;;;;;;0.50;0.50;;;5.70;99.90;;;;;;4973831;28;20791;-75
2022/01/25 11:33:08;;;;;;;1.80;1.40;;;6.50;99.90;;;;;;4975934;28;20491;-75
2022/01/25 11:35:34;;;;;;;0.40;0.40;;;6.60;99.90;;;;;;4975749;28;20396;-74
2022/01/25 11:38:00;;;;;;;0.60;0.60;;;7.30;99.90;;;;;;4974083;28;20400;-74
2022/01/25 11:40:34;;;;;;;0.47;0.47;;;8.00;98.10;;;;;;4975378;28;20438;-74
2022/01/25 11:43:13;;;;;;;0.40;0.30;;;8.60;95.20;;;;;;4975711;28;20765;-74
2022/01/25 11:45:45;;;;;;;0.40;0.40;;;8.50;93.00;;;;;;4975006;28;20426;-73
2022/01/25 11:48:11;;;;;;;0.70;0.70;;;8.40;92.80;;;;;;4975588;28;20380;-74
2022/01/25 11:50:43;;;;;;;0.40;0.20;;;8.70;92.70;;;;;;4974847;28;20381;-75
2022/01/25 11:53:13;;;;;;;0.40;0.20;;;9.50;92.30;;;;;;4975459;28;20729;-75
2022/01/25 11:55:41;;;;;;;0.70;0.70;;;9.70;91.80;;;;;;4974592;28;20384;-74
2022/01/25 11:58:13;;;;;;;0.40;0.30;;;9.40;91.50;;;;;;4978759;28;20418;-74
2022/01/25 12:00:41;;;;;;;0.40;0.35;;;9.30;91.30;;;;;;4994180;28;20386;-74
2022/01/25 12:03:20;;;;;;;0.40;0.32;;;9.90;90.40;;;;;;4994713;28;20406;-74
2022/01/25 12:06:08;;;;;;;0.40;0.20;;;9.50;90.30;;;;;;4993737;28;20425;-75
2022/01/25 12:08:48;;;;;;;0.50;0.50;;;9.60;90.10;;;;;;4994675;28;20390;-74
2022/01/25 12:11:28;;;;;;;0.40;0.20;;;9.60;90.00;;;;;;4994374;28;20391;-74
2022/01/25 12:14:09;;;;;;;0.40;0.20;;;10.60;86.30;;;;;;4993441;28;20786;-74
2022/01/25 12:16:43;;;;;;;0.40;0.20;;;10.20;87.20;;;;;;4994031;28;20383;-74
2022/01/25 12:19:10;;;;;;;0.40;0.20;;;10.60;86.80;;;;;;4994421;28;20385;-74
2022/01/25 12:21:46;;;;;;;0.40;0.30;;;10.50;84.40;;;;;;4993844;28;20394;-75
2022/01/25 12:24:17;;;;;;;0.60;0.60;;;10.10;85.70;;;;;;4994043;28;20414;-74
2022/01/25 12:27:00;;;;;;;0.47;0.47;;;10.60;85.70;;;;;;4993500;28;20399;-74
2022/01/25 12:29:43;;;;;;;0.50;0.40;;;10.00;82.60;;;;;;4994047;28;20446;-74
2022/01/25 12:32:18;;;;;;;1.50;0.80;;;10.50;85.80;;;;;;4994041;28;20401;-73
2022/01/25 12:35:19;;;;;;;0.70;0.70;;;10.40;85.10;;;;;;4991890;28;20817;-75
2022/01/25 12:37:46;;;;;;;2.10;1.10;;;10.40;84.30;;;;;;4951542;28;20403;-74
2022/01/25 12:40:29;;;;;;;0.40;0.40;;;10.80;82.40;;;;;;4993889;28;20394;-73
2022/01/25 12:43:00;;;;;;;0.50;0.50;;;10.10;81.60;;;;;;4993181;28;20481;-75
2022/01/25 12:45:32;;;;;;;1.70;0.70;;;9.90;86.00;;;;;;4994001;28;20457;-73
2022/01/25 12:48:00;;;;;;;0.40;0.30;;;10.40;85.20;;;;;;4991744;28;21220;-73
2022/01/25 12:50:27;;;;;;;1.20;1.10;;;10.40;85.90;;;;;;4993867;28;20469;-73
2022/01/25 12:52:54;;;;;;;0.40;0.30;;;10.60;86.00;;;;;;4992782;28;20403;-74
2022/01/25 12:55:27;;;;;;;0.40;0.30;;;10.70;84.00;;;;;;4993386;28;20786;-74
2022/01/25 12:57:54;;;;;;;0.43;0.40;;;10.20;85.80;;;;;;4991766;28;20451;-74
2022/01/25 13:00:26;;;;;;;0.40;0.20;;;9.00;91.00;;;;;;4974046;28;20683;-74
2022/01/25 13:02:52;;;;;;;0.60;0.60;;;8.30;92.80;;;;;;4973289;28;20423;-75
2022/01/25 13:05:21;;;;;;;1.38;1.25;;;8.10;95.20;;;;;;4973589;28;20412;-75
2022/01/25 13:07:48;;;;;;;1.20;1.10;;;8.00;95.30;;;;;;4973190;28;20784;-75
2022/01/25 13:10:32;;;;;;;0.40;0.30;;;7.60;95.80;;;;;;4973699;28;20740;-75
2022/01/25 13:13:10;;;;;;;0.50;0.50;;;7.50;96.30;;;;;;4972244;28;20400;-74
2022/01/25 13:15:51;;;;;;;0.90;0.90;;;7.20;97.40;;;;;;4973579;28;20471;-75
2022/01/25 13:18:18;;;;;;;2.50;1.50;;;7.20;97.70;;;;;;4973972;28;20415;-74
2022/01/25 13:20:47;;;;;;;0.40;0.30;;;7.50;98.30;;;;;;4973463;28;20466;-75
2022/01/25 13:23:13;;;;;;;1.13;1.03;;;7.60;97.30;;;;;;4973087;28;20420;-75
2022/01/25 13:28:39;;;;;;;1.20;0.70;;;7.70;95.10;;;;;;4967117;28;20486;-73
2022/01/25 13:31:12;;;;;;;0.70;0.50;;;7.70;95.20;;;;;;4972733;28;20399;-74
2022/01/25 13:33:38;;;;;;;1.30;1.20;;;7.70;96.30;;;;;;4972384;28;20423;-74
2022/01/25 13:36:07;;;;;;;1.10;1.00;;;7.60;96.80;;;;;;4970977;28;20404;-74
2022/01/25 13:38:36;;;;;;;0.40;0.30;;;7.80;95.70;;;;;;4973354;28;20392;-74
2022/01/25 13:46:28;;;;;;;0.40;0.20;;;7.90;94.90;;;;;;4972688;28;20549;-75
2022/01/25 13:49:02;;;;;;;1.27;1.25;;;8.00;95.00;;;;;;4973166;28;20479;-75
2022/01/25 13:51:30;;;;;;;0.52;0.52;;;8.00;95.00;;;;;;4972334;28;20396;-75
2022/01/25 13:53:59;;;;;;;0.40;0.20;;;7.90;95.00;;;;;;4972988;28;20566;-74
2022/01/25 13:56:31;;;;;;;0.40;0.30;;;8.30;94.70;;;;;;4972265;28;20385;-75
2022/01/25 13:58:59;;;;;;;1.30;0.60;;;8.20;94.50;;;;;;4983088;28;20463;-75
2022/01/25 14:01:27;;;;;;;0.43;0.43;;;9.10;94.00;;;;;;4991579;28;20457;-75
2022/01/25 14:03:55;;;;;;;0.80;0.80;;;9.80;92.30;;;;;;4992194;28;20407;-74
2022/01/25 14:06:22;;;;;;;0.40;0.20;;;9.90;91.10;;;;;;4990933;28;20894;-74
2022/01/25 14:08:53;;;;;;;1.00;1.00;;;10.30;89.40;;;;;;4992065;28;20478;-74
2022/01/25 14:11:32;;;;;;;1.50;1.43;;;11.10;88.10;;;;;;4991422;28;20540;-75
2022/01/25 14:24:53;;;;;;;0.40;0.40;;;12.00;78.90;;;;;;4991667;28;20422;-75
2022/01/25 14:27:26;;;;;;;0.80;0.80;;;10.90;81.10;;;;;;4990302;28;20391;-75
2022/01/25 14:29:53;;;;;;;0.80;0.80;;;10.10;83.40;;;;;;4992130;28;20406;-75
2022/01/25 14:32:35;;;;;;;0.40;0.25;;;10.40;84.50;;;;;;4991356;28;20473;-75
2022/01/25 14:35:07;;;;;;;0.40;0.30;;;9.60;87.50;;;;;;4991738;28;20394;-75
2022/01/25 14:37:34;;;;;;;0.80;0.70;;;9.10;90.10;;;;;;4991056;28;20401;-74
2022/01/25 14:40:11;;;;;;;0.40;0.40;;;8.40;92.20;;;;;;4984756;28;20486;-75
2022/01/25 14:42:38;;;;;;;0.90;0.90;;;8.10;94.10;;;;;;4970174;28;20415;-75
2022/01/25 14:45:06;;;;;;;0.88;0.88;;;7.90;95.30;;;;;;4970965;28;20396;-74
2022/01/25 14:47:39;;;;;;;2.40;1.20;;;7.70;96.50;;;;;;4971117;28;20876;-76
2022/01/25 14:50:14;;;;;;;0.43;0.43;;;7.50;96.90;;;;;;4972235;28;20741;-73
2022/01/25 14:52:39;;;;;;;0.40;0.20;;;7.40;97.50;;;;;;4971496;28;20385;-73
2022/01/25 14:55:23;;;;;;;0.40;0.30;;;7.40;97.50;;;;;;4972221;28;20792;-73
2022/01/25 14:59:22;;;;;;;0.40;0.40;;;7.30;98.10;;;;;;4972116;28;20869;-73
2022/01/25 15:00:44;;;;;;;1.10;0.80;;;7.10;98.50;;;;;;4986510;28;20391;-73
2022/01/25 15:03:10;;;;;;;1.30;1.23;;;7.30;97.50;;;;;;4991601;28;20414;-73